Terminal Aerodrome Forecast
Issued by NWS Mt. Holly, NJ

Home | Current Version | Previous Version | Text Only | Print | Product List | Glossary On
Versions: 1 2 3 4 5 6 7 8 9 10 11 12 13 14 15 16 17
219
FTUS41 KPHI 161730
TAFRDG
TAF
KRDG 161730Z 1618/1718 VRB03KT P6SM OVC013
      TEMPO 1618/1622 2SM -SN
     FM162200 VRB03KT 2SM -SN OVC015
     FM170500 32005KT 2SM -SN OVC006
     FM171200 32006KT P6SM OVC012
     FM171400 32011KT P6SM OVC040=

USA.gov is the U.S. government's official web portal to all federal, state and local government web resources and services.